Thunder radar more information blitzortung!


Radar de pluja more information rain snow radar


Visita la nostra xarxa de llocs de meteo:

Template documentation
and downloads

And another site



No particular awareness of the weather is required.    There are no Weather-warnings

Pagina Historial Weather Underground text

Diari Resum Novembre 8, 2017 Unitats:  Mètric    Imperial   Tant
« Previous Dia
SegĂźent Dia »
Diari Setmana Mensual Anual Personalitzada
  Maxima: Minima: Media:
Temperatura: 11.9 °C 3.2 °C 8.7 °C
Punt de rosada: 1.5 °C -5.8 °C -0.6 °C
Humitat: 63 % 46 % 52 %
Wind Speed: 9.3 km/h 0.0 km/h 3 km/h
RĂ fegues de vent: 9.3 km/h - -
Vent:- - SSE
Pression baro: 1023.9 hPa 1019.9 hPa -
Precipitacions: 0.0 mm    
Historical Graphs
 
 
Dades de taula per Novembre 8, 2017
Temps Temperatura Punt de rosada Pression baro Vent Wind Speed RĂ fegues de vent Humitat Rainfall Rate (Hourly)
00:04 4.6 °C -5.8 °C 1019.9 hPa WSW 3.7 km/h 3.7 km/h 47 % 0.0 mm
00:05 3.7 °C -5.5 °C 1019.9 hPa West 1.6 km/h 3.2 km/h 51 % 0.0 mm
00:15 3.6 °C -5.3 °C 1019.9 hPa Calm   3.2 km/h 52 % 0.0 mm
00:25 3.4 °C -5.6 °C 1019.9 hPa WSW 1.6 km/h 3.2 km/h 52 % 0.0 mm
00:35 3.3 °C -5.6 °C 1019.9 hPa SW 1.6 km/h 3.2 km/h 52 % 0.0 mm
00:45 3.4 °C -5.6 °C 1019.9 hPa Calm     52 % 0.0 mm
00:55 3.4 °C -5.6 °C 1019.9 hPa SW 3.2 km/h 3.2 km/h 52 % 0.0 mm
01:05 3.4 °C -5.6 °C 1019.9 hPa WSW 1.6 km/h 3.2 km/h 52 % 0.0 mm
01:15 3.4 °C -5.6 °C 1019.9 hPa West 1.6 km/h 3.2 km/h 52 % 0.0 mm
01:35 3.5 °C -5.2 °C 1019.9 hPa Calm   3.2 km/h 53 % 0.0 mm
01:45 3.5 °C -5.4 °C 1019.9 hPa WSW 1.6 km/h 3.2 km/h 52 % 0.0 mm
01:55 3.7 °C -5.3 °C 1020.9 hPa West 1.6 km/h 3.2 km/h 52 % 0.0 mm
02:05 4.0 °C -4.7 °C 1020.9 hPa NW 3.2 km/h 4.8 km/h 53 % 0.0 mm
02:15 3.4 °C -5.3 °C 1021.9 hPa NNE 4.8 km/h 6.4 km/h 53 % 0.0 mm
02:25 3.2 °C -5.7 °C 1021.9 hPa NNE 1.6 km/h 6.4 km/h 52 % 0.0 mm
02:35 4.1 °C -4.6 °C 1021.9 hPa Calm   3.2 km/h 53 % 0.0 mm
02:45 4.5 °C -4.3 °C 1021.9 hPa Calm   3.2 km/h 53 % 0.0 mm
02:55 5.0 °C -3.8 °C 1021.9 hPa West 1.6 km/h 4.8 km/h 53 % 0.0 mm
03:05 5.3 °C -3.8 °C 1021.9 hPa NW 3.2 km/h 3.2 km/h 52 % 0.0 mm
03:15 5.9 °C -3.2 °C 1021.9 hPa NW 1.6 km/h 4.8 km/h 52 % 0.0 mm
03:25 6.6 °C -2.6 °C 1021.9 hPa WNW 1.6 km/h 3.2 km/h 52 % 0.0 mm
03:35 7.1 °C -2.1 °C 1021.9 hPa NW 3.2 km/h 6.4 km/h 52 % 0.0 mm
03:45 7.7 °C -1.8 °C 1020.9 hPa NNW 3.2 km/h 4.8 km/h 51 % 0.0 mm
03:55 8.3 °C -1.3 °C 1021.9 hPa NNW 1.6 km/h 1.6 km/h 51 % 0.0 mm
04:05 8.7 °C -0.9 °C 1021.9 hPa ENE 1.6 km/h 3.2 km/h 51 % 0.0 mm
04:15 9.5 °C -0.2 °C 1021.9 hPa ESE 1.6 km/h 3.2 km/h 51 % 0.0 mm
04:25 9.0 °C -0.9 °C 1021.9 hPa NE 3.2 km/h 4.8 km/h 50 % 0.0 mm
04:35 9.5 °C -0.4 °C 1021.9 hPa ENE 1.6 km/h 6.4 km/h 50 % 0.0 mm
04:45 9.8 °C -0.4 °C 1021.9 hPa NE 3.2 km/h 3.2 km/h 49 % 0.0 mm
04:55 9.5 °C -0.7 °C 1021.9 hPa NE 1.6 km/h 3.2 km/h 49 % 0.0 mm
11:02 9.6 °C -0.6 °C 1021.9 hPa North 2.6 km/h 2.6 km/h 49 % 0.0 mm
11:03 9.6 °C -0.6 °C 1021.9 hPa North 3.7 km/h 3.7 km/h 49 % 0.0 mm
11:04 9.6 °C -0.6 °C 1021.9 hPa WNW 3.7 km/h 3.7 km/h 49 % 0.0 mm
11:09 9.4 °C -1.1 °C 1021.9 hPa NNE 5.6 km/h 5.6 km/h 48 % 0.0 mm
11:14 9.4 °C -1.1 °C 1021.9 hPa NNE 3.9 km/h 3.9 km/h 48 % 0.0 mm
11:19 9.6 °C -0.9 °C 1021.9 hPa NNW 3.7 km/h   48 % 0.0 mm
11:24 9.6 °C -0.9 °C 1021.9 hPa ENE 3.7 km/h 3.7 km/h 48 % 0.0 mm
11:29 9.8 °C -0.7 °C 1021.9 hPa ENE 4.2 km/h 4.2 km/h 48 % 0.0 mm
11:34 10.0 °C -0.5 °C 1021.9 hPa NNW 3.7 km/h 3.7 km/h 48 % 0.0 mm
11:39 10.2 °C -0.3 °C 1021.9 hPa NNE 2.3 km/h   48 % 0.0 mm
11:44 10.5 °C -0.1 °C 1021.9 hPa ENE 3.7 km/h   48 % 0.0 mm
11:49 10.6 °C -0.3 °C 1021.9 hPa WNW 3.7 km/h 3.7 km/h 47 % 0.0 mm
11:54 10.7 °C -0.2 °C 1020.9 hPa ENE 4.2 km/h 4.2 km/h 47 % 0.0 mm
11:59 10.6 °C -0.3 °C 1020.9 hPa NNW 3.7 km/h 3.7 km/h 47 % 0.0 mm
12:04 10.7 °C -0.2 °C 1020.9 hPa NE 5.6 km/h 5.6 km/h 47 % 0.0 mm
12:09 10.8 °C -0.1 °C 1021.9 hPa NE 3.7 km/h 3.7 km/h 47 % 0.0 mm
12:14 11.2 °C 0.3 °C 1021.9 hPa NNW 3.7 km/h 3.7 km/h 47 % 0.0 mm
12:19 11.2 °C 0.3 °C 1021.9 hPa ENE 3.9 km/h 3.9 km/h 47 % 0.0 mm
12:24 11.4 °C 0.5 °C 1021.9 hPa NNW 5.6 km/h 5.6 km/h 47 % 0.0 mm
12:29 11.5 °C 0.6 °C 1021.9 hPa ENE 7.4 km/h 7.4 km/h 47 % 0.0 mm
12:34 11.4 °C 0.5 °C 1021.9 hPa NNE 8.7 km/h 8.7 km/h 47 % 0.0 mm
12:39 11.2 °C 0.0 °C 1021.9 hPa ENE 7.4 km/h 7.4 km/h 46 % 0.0 mm
12:44 11.1 °C -0.1 °C 1021.9 hPa NNE 5.6 km/h 5.6 km/h 46 % 0.0 mm
12:49 11.3 °C 0.1 °C 1021.9 hPa ESE 3.9 km/h 3.9 km/h 46 % 0.0 mm
12:54 11.4 °C 0.2 °C 1021.9 hPa ENE 7.4 km/h 7.4 km/h 46 % 0.0 mm
12:59 11.5 °C 0.3 °C 1021.9 hPa NNE 4.2 km/h 4.2 km/h 46 % 0.0 mm
13:04 11.7 °C 0.4 °C 1021.9 hPa NE 4.7 km/h 4.7 km/h 46 % 0.0 mm
13:09 11.9 °C 0.6 °C 1021.9 hPa NNE 6.1 km/h 6.1 km/h 46 % 0.0 mm
13:14 11.9 °C 0.6 °C 1021.9 hPa NE 3.7 km/h 3.7 km/h 46 % 0.0 mm
13:19 11.8 °C 0.6 °C 1021.9 hPa ENE 6.1 km/h 6.1 km/h 46 % 0.0 mm
13:24 11.7 °C 0.4 °C 1021.9 hPa NE 7.4 km/h 7.4 km/h 46 % 0.0 mm
13:29 11.8 °C 0.6 °C 1021.9 hPa ENE 7.4 km/h 7.4 km/h 46 % 0.0 mm
13:34 11.9 °C 0.6 °C 1021.9 hPa NNE 5.6 km/h 5.6 km/h 46 % 0.0 mm
13:44 11.9 °C 0.6 °C 1020.9 hPa NNE 7.4 km/h 7.4 km/h 46 % 0.0 mm
13:49 11.9 °C 0.6 °C 1020.9 hPa NNE 4.2 km/h   46 % 0.0 mm
13:54 11.8 °C 0.6 °C 1020.9 hPa NNE 3.7 km/h   46 % 0.0 mm
13:59 11.9 °C 0.9 °C 1020.9 hPa NNE 3.7 km/h 3.7 km/h 47 % 0.0 mm
14:04 11.8 °C 0.6 °C 1020.9 hPa NNE 6.4 km/h 6.4 km/h 46 % 0.0 mm
14:09 11.7 °C 0.7 °C 1021.9 hPa NNE 5.6 km/h 5.6 km/h 47 % 0.0 mm
14:14 11.7 °C 0.7 °C 1021.9 hPa West 3.7 km/h 3.7 km/h 47 % 0.0 mm
14:19 11.7 °C 0.7 °C 1021.9 hPa NNE 5.6 km/h 5.6 km/h 47 % 0.0 mm
14:24 11.7 °C 0.7 °C 1020.9 hPa NE 7.4 km/h 7.4 km/h 47 % 0.0 mm
14:29 11.7 °C 0.7 °C 1020.9 hPa NNE 5.6 km/h 5.6 km/h 47 % 0.0 mm
14:34 11.7 °C 0.7 °C 1020.9 hPa NW 3.7 km/h 3.7 km/h 47 % 0.0 mm
14:39 11.7 °C 0.7 °C 1021.9 hPa NE 5.6 km/h 5.6 km/h 47 % 0.0 mm
14:44 11.7 °C 0.7 °C 1021.9 hPa NE 7.4 km/h 7.4 km/h 47 % 0.0 mm
14:54 11.7 °C 0.7 °C 1020.9 hPa NNE 2.6 km/h 2.6 km/h 47 % 0.0 mm
14:59 11.7 °C 0.7 °C 1020.9 hPa ENE 7.4 km/h 7.4 km/h 47 % 0.0 mm
15:04 11.6 °C 0.7 °C 1020.9 hPa NNE 5.6 km/h 5.6 km/h 47 % 0.0 mm
15:09 11.6 °C 0.7 °C 1021.9 hPa ENE 5.6 km/h 5.6 km/h 47 % 0.0 mm
15:14 11.6 °C 0.7 °C 1021.9 hPa NNE 3.9 km/h 3.9 km/h 47 % 0.0 mm
15:19 11.6 °C 0.7 °C 1021.9 hPa ENE 3.7 km/h 3.7 km/h 47 % 0.0 mm
15:29 11.5 °C 0.8 °C 1020.9 hPa North 3.7 km/h   48 % 0.0 mm
15:34 11.6 °C 0.9 °C 1020.9 hPa WNW 3.7 km/h 3.7 km/h 48 % 0.0 mm
15:39 11.5 °C 0.8 °C 1020.9 hPa NNW 3.7 km/h 3.7 km/h 48 % 0.0 mm
15:44 11.5 °C 0.8 °C 1020.9 hPa NE 1.9 km/h   48 % 0.0 mm
15:49 11.5 °C 0.8 °C 1020.9 hPa NNE 5.0 km/h 5.0 km/h 48 % 0.0 mm
15:54 11.5 °C 1.2 °C 1021.9 hPa NE 2.3 km/h 2.3 km/h 49 % 0.0 mm
15:59 11.5 °C 1.2 °C 1021.9 hPa WNW 1.9 km/h   49 % 0.0 mm
16:04 11.6 °C 1.2 °C 1021.9 hPa NNW 1.9 km/h   49 % 0.0 mm
16:09 11.6 °C 1.2 °C 1020.9 hPa NNE 3.9 km/h 3.9 km/h 49 % 0.0 mm
16:14 11.6 °C 1.2 °C 1020.9 hPa NNE 1.9 km/h 1.9 km/h 49 % 0.0 mm
16:19 11.6 °C 1.2 °C 1020.9 hPa NNE 1.9 km/h   49 % 0.0 mm
16:24 11.6 °C 1.5 °C 1020.9 hPa North 2.6 km/h 2.6 km/h 50 % 0.0 mm
16:29 11.5 °C 1.4 °C 1020.9 hPa ENE 1.9 km/h   50 % 0.0 mm
16:34 11.4 °C 1.3 °C 1020.9 hPa East 3.7 km/h 3.7 km/h 50 % 0.0 mm
16:39 11.3 °C 1.2 °C 1020.9 hPa NW 4.2 km/h 4.2 km/h 50 % 0.0 mm
16:44 11.3 °C 1.2 °C 1020.9 hPa WNW 5.0 km/h 5.0 km/h 50 % 0.0 mm
16:49 11.2 °C 1.2 °C 1020.9 hPa North 2.6 km/h 2.6 km/h 50 % 0.0 mm
16:54 11.1 °C 1.1 °C 1019.9 hPa ENE 5.6 km/h 5.6 km/h 50 % 0.0 mm
16:59 11.0 °C 0.9 °C 1019.9 hPa North 3.9 km/h 3.9 km/h 50 % 0.0 mm
17:04 10.9 °C 0.9 °C 1019.9 hPa NNE 5.6 km/h 5.6 km/h 50 % 0.0 mm
17:09 10.9 °C 0.9 °C 1020.9 hPa North 2.3 km/h   50 % 0.0 mm
17:14 10.8 °C 0.8 °C 1020.9 hPa NNW 3.7 km/h   50 % 0.0 mm
17:19 10.8 °C 0.8 °C 1020.9 hPa WNW 2.6 km/h 2.6 km/h 50 % 0.0 mm
17:24 10.7 °C 0.9 °C 1019.9 hPa NW 1.9 km/h   51 % 0.0 mm
17:29 10.7 °C 0.9 °C 1019.9 hPa West 1.9 km/h   51 % 0.0 mm
17:34 10.7 °C 0.9 °C 1019.9 hPa NNE 1.9 km/h   51 % 0.0 mm
17:39 10.6 °C 0.9 °C 1020.9 hPa NE 1.9 km/h 1.9 km/h 51 % 0.0 mm
17:44 10.6 °C 0.9 °C 1020.9 hPa Calm     51 % 0.0 mm
17:49 10.5 °C 0.8 °C 1020.9 hPa Calm     51 % 0.0 mm
17:54 10.4 °C 0.7 °C 1020.9 hPa Calm     51 % 0.0 mm
17:59 10.3 °C 0.6 °C 1020.9 hPa Calm     51 % 0.0 mm
18:04 10.2 °C 0.5 °C 1020.9 hPa Calm     51 % 0.0 mm
18:09 10.2 °C 0.5 °C 1020.9 hPa WNW 1.9 km/h 1.9 km/h 51 % 0.0 mm
18:14 10.0 °C 0.6 °C 1020.9 hPa Calm     52 % 0.0 mm
18:15 7.9 °C -0.6 °C 1022.9 hPa NNW 1.6 km/h 3.2 km/h 55 % 0.0 mm
18:19 10.0 °C 0.6 °C 1020.9 hPa Calm     52 % 0.0 mm
18:24 9.8 °C 0.4 °C 1021.9 hPa Calm     52 % 0.0 mm
18:25 7.8 °C -0.7 °C 1021.9 hPa ESE 1.6 km/h 1.6 km/h 55 % 0.0 mm
18:29 9.8 °C 0.4 °C 1021.9 hPa WNW 2.3 km/h 2.3 km/h 52 % 0.0 mm
18:34 9.7 °C 0.3 °C 1021.9 hPa West 1.9 km/h 1.9 km/h 52 % 0.0 mm
18:35 7.7 °C -0.8 °C 1021.9 hPa SSW 1.6 km/h 1.6 km/h 55 % 0.0 mm
18:39 9.6 °C 0.5 °C 1020.9 hPa SW 1.9 km/h   53 % 0.0 mm
18:44 9.4 °C 0.3 °C 1020.9 hPa Calm     53 % 0.0 mm
18:45 7.6 °C -0.9 °C 1021.9 hPa SW 1.6 km/h 6.4 km/h 55 % 0.0 mm
18:49 9.4 °C 0.3 °C 1020.9 hPa NE 3.2 km/h 3.2 km/h 53 % 0.0 mm
18:54 9.3 °C 0.4 °C 1021.9 hPa NW 2.3 km/h   54 % 0.0 mm
18:55 7.4 °C -1.1 °C 1022.9 hPa WSW 3.2 km/h 4.8 km/h 55 % 0.0 mm
18:59 9.3 °C 0.4 °C 1021.9 hPa NW 1.9 km/h 1.9 km/h 54 % 0.0 mm
19:04 9.3 °C 0.2 °C 1021.9 hPa NW 5.6 km/h 5.6 km/h 53 % 0.0 mm
19:05 7.2 °C -1.2 °C 1022.9 hPa Calm   3.2 km/h 55 % 0.0 mm
19:14 9.2 °C 0.4 °C 1021.9 hPa NNE 1.9 km/h   54 % 0.0 mm
19:15 6.9 °C -1.6 °C 1021.9 hPa SW 3.2 km/h 3.2 km/h 55 % 0.0 mm
19:19 9.2 °C 0.4 °C 1021.9 hPa NW 1.9 km/h   54 % 0.0 mm
19:24 9.2 °C 0.4 °C 1021.9 hPa Calm     54 % 0.0 mm
19:29 9.2 °C 0.4 °C 1021.9 hPa Calm     54 % 0.0 mm
19:34 9.2 °C 0.4 °C 1021.9 hPa NW 1.9 km/h 1.9 km/h 54 % 0.0 mm
19:35 6.5 °C -1.7 °C 1021.9 hPa WSW 3.2 km/h 3.2 km/h 56 % 0.0 mm
19:39 9.2 °C 0.4 °C 1021.9 hPa WNW 1.9 km/h   54 % 0.0 mm
19:44 9.2 °C 0.4 °C 1021.9 hPa WNW 3.5 km/h 3.5 km/h 54 % 0.0 mm
19:45 6.2 °C -1.9 °C 1021.9 hPa SW 3.2 km/h 3.2 km/h 56 % 0.0 mm
19:49 9.2 °C 0.4 °C 1021.9 hPa NNE 3.2 km/h 3.2 km/h 54 % 0.0 mm
19:54 9.2 °C 0.4 °C 1021.9 hPa Calm     54 % 0.0 mm
19:55 6.0 °C -1.9 °C 1021.9 hPa SW 1.6 km/h 4.8 km/h 57 % 0.0 mm
19:59 9.1 °C 0.3 °C 1021.9 hPa South 1.9 km/h   54 % 0.0 mm
20:04 9.0 °C 0.2 °C 1021.9 hPa WSW 2.6 km/h   54 % 0.0 mm
20:05 5.8 °C -2.1 °C 1021.9 hPa SW 1.6 km/h 3.2 km/h 57 % 0.0 mm
20:14 8.4 °C -0.1 °C 1021.9 hPa NE 2.6 km/h 2.6 km/h 55 % 0.0 mm
20:15 5.8 °C -2.1 °C 1022.9 hPa WSW 3.2 km/h 3.2 km/h 57 % 0.0 mm
20:24 8.4 °C 0.1 °C 1021.9 hPa Calm     56 % 0.0 mm
20:25 5.7 °C -1.9 °C 1022.9 hPa Calm   3.2 km/h 58 % 0.0 mm
20:29 8.4 °C 0.1 °C 1021.9 hPa Calm     56 % 0.0 mm
20:34 8.3 °C 0.0 °C 1021.9 hPa WNW 1.9 km/h 1.9 km/h 56 % 0.0 mm
20:35 5.6 °C -2.0 °C 1022.9 hPa WSW 1.6 km/h 3.2 km/h 58 % 0.0 mm
20:39 8.2 °C -0.1 °C 1020.9 hPa North 1.9 km/h 1.9 km/h 56 % 0.0 mm
20:44 8.3 °C 0.0 °C 1020.9 hPa Calm     56 % 0.0 mm
20:45 5.6 °C -1.8 °C 1021.9 hPa Calm   3.2 km/h 59 % 0.0 mm
20:49 8.3 °C 0.0 °C 1020.9 hPa West 1.9 km/h 1.9 km/h 56 % 0.0 mm
20:54 8.2 °C -0.1 °C 1021.9 hPa Calm     56 % 0.0 mm
20:55 5.5 °C -1.9 °C 1021.9 hPa WSW 1.6 km/h 3.2 km/h 59 % 0.0 mm
20:59 8.1 °C -0.2 °C 1021.9 hPa West 1.4 km/h   56 % 0.0 mm
21:04 8.0 °C -0.3 °C 1021.9 hPa WNW 1.9 km/h   56 % 0.0 mm
21:05 5.4 °C -2.0 °C 1021.9 hPa West 1.6 km/h 3.2 km/h 59 % 0.0 mm
21:09 8.0 °C -0.3 °C 1021.9 hPa Calm     56 % 0.0 mm
21:14 8.1 °C -0.2 °C 1021.9 hPa West 3.7 km/h 3.7 km/h 56 % 0.0 mm
21:15 5.4 °C -1.8 °C 1021.9 hPa West 1.6 km/h 3.2 km/h 60 % 0.0 mm
21:19 8.0 °C -0.3 °C 1021.9 hPa WSW 3.7 km/h 3.7 km/h 56 % 0.0 mm
21:24 7.8 °C -0.4 °C 1020.9 hPa WSW 1.9 km/h   56 % 0.0 mm
21:25 5.1 °C -2.1 °C 1022.9 hPa North 3.2 km/h 4.8 km/h 60 % 0.0 mm
21:29 7.9 °C -0.3 °C 1020.9 hPa SE 1.9 km/h 1.9 km/h 56 % 0.0 mm
21:34 8.1 °C -0.2 °C 1020.9 hPa North 1.9 km/h   56 % 0.0 mm
21:35 4.7 °C -2.2 °C 1022.9 hPa Calm   1.6 km/h 61 % 0.0 mm
21:39 8.2 °C -0.1 °C 1021.9 hPa WSW 3.5 km/h   56 % 0.0 mm
21:44 8.4 °C -0.1 °C 1021.9 hPa WSW 3.7 km/h 3.7 km/h 55 % 0.0 mm
21:45 4.5 °C -2.4 °C 1022.9 hPa Calm   1.6 km/h 61 % 0.0 mm
21:49 8.5 °C -0.1 °C 1021.9 hPa WSW 1.9 km/h   55 % 0.0 mm
21:54 8.6 °C 0.1 °C 1021.9 hPa WSW 2.6 km/h 2.6 km/h 55 % 0.0 mm
21:55 4.4 °C -2.5 °C 1022.9 hPa ESE 3.2 km/h 3.2 km/h 61 % 0.0 mm
21:59 8.6 °C 0.1 °C 1021.9 hPa WSW 3.7 km/h 3.7 km/h 55 % 0.0 mm
22:04 8.3 °C -0.2 °C 1021.9 hPa West 5.6 km/h 5.6 km/h 55 % 0.0 mm
22:05 4.4 °C -2.3 °C 1022.9 hPa Calm   3.2 km/h 62 % 0.0 mm
22:09 8.3 °C -0.2 °C 1021.9 hPa WSW 3.7 km/h 3.7 km/h 55 % 0.0 mm
22:14 8.4 °C -0.1 °C 1021.9 hPa NNW 3.7 km/h 3.7 km/h 55 % 0.0 mm
22:15 4.3 °C -2.3 °C 1022.9 hPa West 1.6 km/h 3.2 km/h 62 % 0.0 mm
22:19 8.5 °C -0.1 °C 1021.9 hPa West 5.8 km/h 5.8 km/h 55 % 0.0 mm
22:24 8.6 °C -0.2 °C 1021.9 hPa West 7.4 km/h 7.4 km/h 54 % 0.0 mm
22:25 4.3 °C -2.1 °C 1022.9 hPa NE 1.6 km/h 3.2 km/h 63 % 0.0 mm
22:29 8.7 °C -0.1 °C 1021.9 hPa West 4.2 km/h 4.2 km/h 54 % 0.0 mm
22:34 8.8 °C 0.0 °C 1021.9 hPa East 7.4 km/h 7.4 km/h 54 % 0.0 mm
22:35 4.5 °C -1.9 °C 1022.9 hPa NE 1.6 km/h 1.6 km/h 63 % 0.0 mm
22:39 8.9 °C 0.1 °C 1021.9 hPa West 5.6 km/h 5.6 km/h 54 % 0.0 mm
22:44 8.9 °C 0.1 °C 1021.9 hPa West 7.6 km/h 7.6 km/h 54 % 0.0 mm
22:45 4.6 °C -2.1 °C 1022.9 hPa NE 1.6 km/h 3.2 km/h 62 % 0.0 mm
22:49 8.8 °C 0.0 °C 1021.9 hPa WSW 7.4 km/h 7.4 km/h 54 % 0.0 mm
22:54 8.7 °C -0.1 °C 1021.9 hPa WSW 5.6 km/h 5.6 km/h 54 % 0.0 mm
22:55 4.4 °C -2.3 °C 1022.9 hPa NNE 1.6 km/h 3.2 km/h 62 % 0.0 mm
22:59 8.6 °C -0.2 °C 1021.9 hPa SW 5.6 km/h 5.6 km/h 54 % 0.0 mm
23:04 8.4 °C -0.4 °C 1021.9 hPa WSW 3.7 km/h 3.9 km/h 54 % 0.0 mm
23:05 4.4 °C -2.1 °C 1022.9 hPa NNE 1.6 km/h 1.6 km/h 63 % 0.0 mm
23:09 8.3 °C -0.5 °C 1021.9 hPa SW 3.7 km/h 3.7 km/h 54 % 0.0 mm
23:14 8.2 °C -0.6 °C 1021.9 hPa WSW 5.6 km/h 5.6 km/h 54 % 0.0 mm
23:15 4.3 °C -2.1 °C 1022.9 hPa Calm   1.6 km/h 63 % 0.0 mm
23:19 8.2 °C -0.6 °C 1021.9 hPa West 9.3 km/h 9.3 km/h 54 % 0.0 mm
23:24 8.1 °C -0.7 °C 1021.9 hPa West 5.6 km/h 5.6 km/h 54 % 0.0 mm
23:25 4.3 °C -2.1 °C 1022.9 hPa NNE 3.2 km/h 4.8 km/h 63 % 0.0 mm
23:29 8.1 °C -0.7 °C 1021.9 hPa SW 3.7 km/h 3.7 km/h 54 % 0.0 mm
23:34 8.0 °C -0.8 °C 1021.9 hPa SSW 3.7 km/h 3.7 km/h 54 % 0.0 mm
23:35 4.2 °C -2.2 °C 1022.9 hPa NNE 1.6 km/h 4.8 km/h 63 % 0.0 mm
23:39 7.8 °C -0.7 °C 1022.9 hPa SW 1.9 km/h   55 % 0.0 mm
23:44 7.7 °C -0.8 °C 1022.9 hPa SW 1.9 km/h   55 % 0.0 mm
23:45 4.1 °C -2.3 °C 1022.9 hPa NE 1.6 km/h 3.2 km/h 63 % 0.0 mm
23:49 7.6 °C -0.9 °C 1022.9 hPa West 6.1 km/h 6.1 km/h 55 % 0.0 mm
23:54 7.7 °C -0.8 °C 1022.9 hPa West 3.7 km/h 3.7 km/h 55 % 0.0 mm
23:55 3.9 °C -2.5 °C 1023.9 hPa Calm   1.6 km/h 63 % 0.0 mm
23:59 7.8 °C -0.7 °C 1022.9 hPa WNW 5.6 km/h 5.6 km/h 55 % 0.0 mm
Meteo Sesrovires
Elogis d' Weather Underground - 3.75 mb

Guio original per  Jim McMurry - jmcmurry@mwt.net Adaptat per a la plantilla per  Wim van der Kuil - Leuven-Template.eu

Trobareu la nostra informacio del temps tambe a:

Weather Underground

AWEKAS